createdAt,value
2023-03-17T00:01:07.422Z,78.51
2023-03-17T00:03:45.796Z,78.54
2023-03-17T00:06:20.252Z,78.52
2023-03-17T00:08:50.905Z,78.62
2023-03-17T00:11:23.523Z,78.57
2023-03-17T00:13:56.538Z,78.65
2023-03-17T00:16:33.958Z,78.59
2023-03-17T00:19:05.508Z,78.74
2023-03-17T00:21:37.910Z,78.77
2023-03-17T00:24:15.022Z,78.65
2023-03-17T00:26:46.057Z,78.69
2023-03-17T00:29:17.678Z,78.81
2023-03-17T00:31:49.527Z,78.56
2023-03-17T00:34:21.120Z,78.73
2023-03-17T00:36:54.031Z,78.78
2023-03-17T00:39:28.158Z,78.60
2023-03-17T00:41:59.103Z,78.73
2023-03-17T00:44:30.505Z,78.77
2023-03-17T00:47:02.703Z,78.72
2023-03-17T00:49:34.192Z,78.86
2023-03-17T00:52:04.634Z,78.73
2023-03-17T00:54:35.276Z,78.88
2023-03-17T00:57:05.592Z,79.07
2023-03-17T00:59:43.708Z,79.34
2023-03-17T01:02:15.311Z,79.33
2023-03-17T01:05:12.321Z,79.12
2023-03-17T01:07:55.141Z,78.74
2023-03-17T01:10:29.490Z,78.97
2023-03-17T01:13:07.679Z,78.74
2023-03-17T01:15:47.704Z,79.11
2023-03-17T01:18:20.977Z,79.17
2023-03-17T01:20:53.163Z,79.20
2023-03-17T01:23:24.838Z,79.12
2023-03-17T01:25:57.256Z,79.17
2023-03-17T01:28:28.933Z,79.12
2023-03-17T01:30:59.502Z,79.28
2023-03-17T01:33:30.576Z,79.26
2023-03-17T01:36:07.397Z,79.28
2023-03-17T01:39:05.025Z,79.28
2023-03-17T01:41:42.323Z,79.28
2023-03-17T01:44:28.323Z,79.47
2023-03-17T01:47:01.039Z,79.36
2023-03-17T01:49:40.410Z,79.47
2023-03-17T01:52:23.686Z,79.76
2023-03-17T01:54:58.845Z,79.53
2023-03-17T01:57:43.700Z,79.72
2023-03-17T02:00:23.967Z,79.82
2023-03-17T02:02:59.262Z,79.79
2023-03-17T02:05:33.215Z,80.02
2023-03-17T02:08:05.208Z,79.89
2023-03-17T02:10:36.953Z,79.96
2023-03-17T02:13:08.246Z,79.94
2023-03-17T02:15:46.179Z,80.21
2023-03-17T02:18:19.122Z,80.26
2023-03-17T02:20:49.234Z,80.21
2023-03-17T02:23:24.276Z,80.20
2023-03-17T02:25:55.914Z,80.34
2023-03-17T02:28:33.405Z,80.42
2023-03-17T02:31:07.030Z,80.51
2023-03-17T02:33:37.268Z,80.55
2023-03-17T02:36:11.021Z,80.41
2023-03-17T02:38:42.409Z,80.47
2023-03-17T02:41:13.994Z,80.45
2023-03-17T02:43:46.382Z,80.60
2023-03-17T02:46:18.921Z,80.83
2023-03-17T02:48:51.615Z,80.79
2023-03-17T02:51:22.029Z,80.81
2023-03-17T02:53:52.734Z,80.91
2023-03-17T02:56:23.931Z,80.90
2023-03-17T02:58:54.787Z,81.04
2023-03-17T03:01:28.579Z,81.11
2023-03-17T03:04:00.001Z,81.27
2023-03-17T03:06:31.013Z,81.24
2023-03-17T03:09:02.818Z,81.15
2023-03-17T03:11:33.864Z,81.01
2023-03-17T03:14:04.960Z,81.11
2023-03-17T03:16:37.723Z,81.32
2023-03-17T03:19:10.978Z,81.40
2023-03-17T03:21:44.116Z,81.41
2023-03-17T03:24:14.798Z,81.34
2023-03-17T03:26:45.978Z,81.26
2023-03-17T03:29:19.369Z,81.44
2023-03-17T03:31:50.805Z,81.02
2023-03-17T03:34:22.621Z,80.97
2023-03-17T03:36:53.556Z,80.99
2023-03-17T03:39:24.292Z,81.20
2023-03-17T03:41:59.586Z,81.26
2023-03-17T03:44:30.128Z,81.35
2023-03-17T03:47:00.370Z,81.19
2023-03-17T03:49:31.557Z,81.30
2023-03-17T03:52:01.917Z,81.31
2023-03-17T03:54:32.309Z,81.59
2023-03-17T03:57:03.495Z,81.64
2023-03-17T03:59:34.730Z,81.63
2023-03-17T04:02:05.196Z,81.59
2023-03-17T04:04:36.391Z,81.53
2023-03-17T04:07:07.606Z,81.53
2023-03-17T04:09:40.089Z,81.61
2023-03-17T04:12:14.303Z,81.71
2023-03-17T04:14:47.789Z,81.90
2023-03-17T04:17:18.309Z,82.09
2023-03-17T04:19:49.795Z,82.13
2023-03-17T04:22:24.418Z,82.25
2023-03-17T04:24:55.806Z,82.11
2023-03-17T04:27:27.421Z,82.07
2023-03-17T04:30:02.099Z,82.14
2023-03-17T04:32:34.187Z,81.80
2023-03-17T04:35:04.584Z,81.71
2023-03-17T04:37:34.806Z,81.50
2023-03-17T04:40:10.694Z,81.33
2023-03-17T04:42:45.125Z,81.23
2023-03-17T04:45:19.396Z,81.22
2023-03-17T04:47:50.353Z,81.24
2023-03-17T04:50:20.865Z,81.20
2023-03-17T04:52:52.030Z,81.13
2023-03-17T04:55:23.692Z,81.12
2023-03-17T04:57:55.547Z,81.01
2023-03-17T05:00:27.329Z,80.80
2023-03-17T05:03:01.112Z,80.87
2023-03-17T05:05:32.280Z,80.67
2023-03-17T05:08:03.427Z,80.84
2023-03-17T05:10:33.863Z,80.97
2023-03-17T05:13:06.277Z,81.10
2023-03-17T05:15:38.649Z,80.94
2023-03-17T05:20:38.462Z,81.65
2023-03-17T05:23:10.047Z,81.86
2023-03-17T05:25:41.950Z,81.96
2023-03-17T05:28:13.050Z,82.10
2023-03-17T05:30:46.568Z,81.91
2023-03-17T05:33:17.962Z,82.26
2023-03-17T05:35:49.541Z,82.33
2023-03-17T05:38:19.712Z,82.20
2023-03-17T05:40:53.038Z,82.41
2023-03-17T05:43:24.675Z,82.34
2023-03-17T05:45:56.399Z,82.51
2023-03-17T05:48:35.286Z,82.46
2023-03-17T05:51:09.534Z,82.26
2023-03-17T05:53:41.308Z,82.42
2023-03-17T05:56:12.957Z,82.41
2023-03-17T05:58:44.197Z,82.56
2023-03-17T06:01:16.948Z,82.49
2023-03-17T06:03:48.925Z,82.59
2023-03-17T06:06:23.356Z,82.70
2023-03-17T06:08:54.591Z,82.67
2023-03-17T06:11:25.593Z,82.62
2023-03-17T06:13:56.903Z,82.59
2023-03-17T06:16:28.416Z,82.48
2023-03-17T06:18:58.863Z,82.48
2023-03-17T06:21:30.032Z,82.47
2023-03-17T06:24:03.257Z,82.41
2023-03-17T06:26:33.487Z,82.30
2023-03-17T06:29:05.465Z,82.22
2023-03-17T06:31:37.350Z,82.23
2023-03-17T06:34:08.658Z,82.19
2023-03-17T06:36:41.378Z,82.26
2023-03-17T06:39:13.339Z,82.14
2023-03-17T06:41:44.732Z,82.20
2023-03-17T06:44:15.578Z,82.25
2023-03-17T06:46:46.584Z,82.14
2023-03-17T06:49:17.395Z,82.13
2023-03-17T06:51:48.679Z,82.22
2023-03-17T06:54:21.494Z,82.25
2023-03-17T06:56:52.314Z,82.00
2023-03-17T06:59:25.276Z,81.97
2023-03-17T07:01:56.212Z,81.68
2023-03-17T07:04:27.962Z,81.83
2023-03-17T07:06:59.979Z,81.50
2023-03-17T07:09:31.580Z,81.64
2023-03-17T07:12:07.065Z,81.59
2023-03-17T07:14:38.947Z,81.80
2023-03-17T07:17:10.460Z,81.86
2023-03-17T07:19:43.109Z,81.80
2023-03-17T07:22:15.740Z,82.01
2023-03-17T07:24:49.856Z,82.08
2023-03-17T07:27:23.260Z,82.09
2023-03-17T07:29:57.012Z,82.33
2023-03-17T07:32:28.611Z,82.39
2023-03-17T07:35:00.953Z,82.57
2023-03-17T07:37:31.258Z,82.68
2023-03-17T07:40:03.050Z,82.68
2023-03-17T07:42:34.432Z,82.74
2023-03-17T07:45:07.851Z,82.74
2023-03-17T07:47:38.578Z,82.59
2023-03-17T07:50:10.301Z,82.53
2023-03-17T07:52:41.440Z,82.34
2023-03-17T07:55:14.835Z,82.04
2023-03-17T07:57:45.694Z,81.78
2023-03-17T08:00:16.515Z,81.58
2023-03-17T08:02:59.617Z,81.34
2023-03-17T08:05:37.539Z,81.16
2023-03-17T08:08:08.045Z,80.90
2023-03-17T08:10:39.230Z,80.70
2023-03-17T08:13:09.726Z,80.52
2023-03-17T08:15:39.767Z,80.34
2023-03-17T08:18:10.385Z,80.47
2023-03-17T08:20:40.584Z,80.58
2023-03-17T08:23:10.836Z,80.82
2023-03-17T08:25:40.906Z,80.91
2023-03-17T08:28:11.796Z,81.20
2023-03-17T08:30:43.475Z,81.17
2023-03-17T08:33:15.257Z,81.27
2023-03-17T08:35:45.725Z,81.42
2023-03-17T08:38:18.855Z,81.79
2023-03-17T08:40:52.842Z,81.90
2023-03-17T08:43:23.489Z,81.96
2023-03-17T08:45:56.743Z,82.04
2023-03-17T08:48:28.259Z,81.98
2023-03-17T08:51:01.228Z,82.06
2023-03-17T08:53:33.186Z,82.17
2023-03-17T08:56:05.306Z,82.16
2023-03-17T08:58:38.982Z,82.12
2023-03-17T09:01:11.086Z,82.02
2023-03-17T09:03:43.536Z,81.75
2023-03-17T09:06:15.604Z,81.47
2023-03-17T09:08:49.601Z,81.18
2023-03-17T09:11:23.043Z,81.03
2023-03-17T09:13:55.194Z,80.83
2023-03-17T09:16:28.145Z,80.32
2023-03-17T09:18:59.922Z,80.57
2023-03-17T09:21:31.393Z,80.64
2023-03-17T09:24:02.857Z,80.49
2023-03-17T09:26:34.276Z,80.68
2023-03-17T09:29:10.213Z,80.66
2023-03-17T09:31:41.067Z,80.54
2023-03-17T09:34:13.381Z,80.46
2023-03-17T09:36:44.640Z,80.45
2023-03-17T09:39:16.128Z,80.34
2023-03-17T09:42:18.277Z,80.00
2023-03-17T09:45:05.305Z,79.83
2023-03-17T09:48:12.216Z,79.51
2023-03-17T09:51:12.472Z,79.28
2023-03-17T09:53:49.313Z,79.23
2023-03-17T09:56:23.309Z,79.23
2023-03-17T09:59:14.956Z,79.31
2023-03-17T10:01:46.036Z,79.37
2023-03-17T10:04:19.067Z,79.67
2023-03-17T10:06:52.219Z,79.55
2023-03-17T10:10:06.590Z,79.53
2023-03-17T10:13:11.568Z,79.15
2023-03-17T10:15:48.165Z,79.28
2023-03-17T10:18:50.300Z,79.68
2023-03-17T10:21:35.649Z,79.74
2023-03-17T10:24:07.276Z,79.28
2023-03-17T10:26:51.664Z,79.41
2023-03-17T10:29:26.603Z,79.16
2023-03-17T10:32:00.438Z,79.04
2023-03-17T10:34:38.465Z,78.94
2023-03-17T10:37:17.657Z,78.56
2023-03-17T10:39:55.174Z,78.22
2023-03-17T10:42:31.515Z,73.84
2023-03-17T10:45:27.469Z,65.52
2023-03-17T10:48:00.520Z,63.69
2023-03-17T10:50:34.915Z,62.83
2023-03-17T10:53:32.906Z,62.73
2023-03-17T10:56:11.796Z,63.14
2023-03-17T10:58:55.149Z,64.22
2023-03-17T11:01:36.857Z,65.40
2023-03-17T11:04:29.094Z,66.00
2023-03-17T11:07:04.471Z,65.68
2023-03-17T11:09:41.990Z,65.38
2023-03-17T11:12:30.912Z,65.26
2023-03-17T11:15:20.551Z,65.12
2023-03-17T11:18:02.629Z,65.57
2023-03-17T11:21:05.824Z,64.65
2023-03-17T11:24:09.419Z,64.09
2023-03-17T11:27:01.113Z,64.65
2023-03-17T11:29:58.348Z,63.82
2023-03-17T11:32:42.863Z,63.22
2023-03-17T11:35:21.663Z,62.75
2023-03-17T11:38:13.725Z,62.98
2023-03-17T11:41:08.040Z,63.43
2023-03-17T11:43:56.927Z,62.39
2023-03-17T11:46:39.394Z,62.08
2023-03-17T11:49:38.340Z,61.94
2023-03-17T11:52:28.747Z,62.02
2023-03-17T11:55:24.027Z,61.28
2023-03-17T11:58:21.140Z,61.25
2023-03-17T12:01:02.713Z,60.45
2023-03-17T12:03:55.093Z,61.54
2023-03-17T12:06:49.076Z,60.70
2023-03-17T12:09:34.804Z,61.21
2023-03-17T12:12:13.823Z,59.90
2023-03-17T12:14:52.860Z,60.29
2023-03-17T12:18:08.982Z,60.73
2023-03-17T12:21:23.006Z,61.33
2023-03-17T12:24:17.288Z,61.07
2023-03-17T12:27:26.070Z,60.87
2023-03-17T12:29:59.520Z,59.41
2023-03-17T12:32:56.939Z,60.13
2023-03-17T12:35:37.016Z,59.50
2023-03-17T12:38:38.897Z,59.75
2023-03-17T12:41:20.549Z,59.42
2023-03-17T12:44:10.607Z,58.82
2023-03-17T12:47:05.442Z,59.86
2023-03-17T12:50:08.386Z,59.76
2023-03-17T12:53:03.199Z,58.17
2023-03-17T12:55:44.562Z,58.06
2023-03-17T12:58:54.202Z,58.39
2023-03-17T13:01:47.041Z,58.59
2023-03-17T13:04:44.545Z,57.25
2023-03-17T13:07:26.880Z,57.48
2023-03-17T13:10:15.627Z,57.54
2023-03-17T13:13:08.422Z,57.95
2023-03-17T13:15:43.811Z,57.65
2023-03-17T13:21:25.210Z,58.15
2023-03-17T13:24:26.192Z,59.44
2023-03-17T13:27:06.910Z,58.46
2023-03-17T13:29:43.662Z,57.34
2023-03-17T13:32:38.957Z,59.28
2023-03-17T13:35:24.250Z,58.23
2023-03-17T13:38:19.978Z,58.31
2023-03-17T13:41:13.909Z,57.97
2023-03-17T13:44:02.116Z,57.24
2023-03-17T13:46:36.498Z,57.30
2023-03-17T13:49:20.873Z,58.75
2023-03-17T13:52:06.655Z,57.99
2023-03-17T13:54:45.078Z,57.82
2023-03-17T13:57:28.984Z,58.20
2023-03-17T14:00:06.151Z,58.63
2023-03-17T14:02:43.854Z,57.70
2023-03-17T14:05:33.642Z,58.01
2023-03-17T14:08:18.249Z,57.29
2023-03-17T14:11:04.159Z,58.22
2023-03-17T14:14:02.449Z,58.99
2023-03-17T14:17:15.748Z,57.88
2023-03-17T14:20:03.831Z,58.25
2023-03-17T14:22:35.257Z,58.70
2023-03-17T14:25:10.135Z,58.14
2023-03-17T14:27:44.516Z,58.65
2023-03-17T14:30:30.895Z,58.43
2023-03-17T14:33:20.853Z,59.07
2023-03-17T14:35:54.993Z,59.23
2023-03-17T14:38:42.713Z,58.83
2023-03-17T14:41:25.454Z,58.84
2023-03-17T14:44:01.538Z,58.21
2023-03-17T14:46:43.358Z,59.27
2023-03-17T14:49:25.337Z,58.67
2023-03-17T14:51:58.913Z,58.99
2023-03-17T14:54:37.350Z,59.36
2023-03-17T14:57:14.756Z,59.09
2023-03-17T15:00:03.768Z,58.67
2023-03-17T15:02:41.725Z,59.22
2023-03-17T15:05:31.449Z,59.79
2023-03-17T15:08:03.876Z,58.51
2023-03-17T15:10:43.937Z,59.47
2023-03-17T15:13:16.317Z,58.85
2023-03-17T15:15:49.180Z,59.88
2023-03-17T15:21:35.423Z,59.02
2023-03-17T15:24:27.873Z,59.28
2023-03-17T15:27:09.622Z,59.15
2023-03-17T15:29:46.406Z,59.50
2023-03-17T15:32:25.594Z,59.66
2023-03-17T15:35:04.196Z,59.85
2023-03-17T15:37:35.954Z,60.36
2023-03-17T15:40:08.013Z,59.95
2023-03-17T15:42:41.753Z,59.70
2023-03-17T15:45:20.224Z,59.77
2023-03-17T15:47:51.198Z,59.99
2023-03-17T15:50:34.430Z,59.20
2023-03-17T15:53:05.326Z,58.40
2023-03-17T15:55:39.857Z,59.69
2023-03-17T15:58:16.060Z,60.00
2023-03-17T16:00:59.488Z,60.77
2023-03-17T16:03:40.900Z,59.80
2023-03-17T16:06:22.577Z,59.96
2023-03-17T16:08:54.466Z,59.89
2023-03-17T16:11:30.805Z,60.12
2023-03-17T16:14:01.844Z,59.92
2023-03-17T16:16:41.173Z,61.21
2023-03-17T16:19:23.104Z,61.22
2023-03-17T16:21:55.114Z,60.19
2023-03-17T16:24:28.929Z,59.67
2023-03-17T16:26:59.361Z,59.13
2023-03-17T16:29:30.402Z,59.58
2023-03-17T16:32:01.885Z,61.03
2023-03-17T16:34:33.232Z,59.61
2023-03-17T16:37:05.837Z,60.35
2023-03-17T16:39:38.231Z,60.00
2023-03-17T16:42:25.791Z,60.43
2023-03-17T16:44:56.727Z,60.49
2023-03-17T16:47:27.325Z,60.75
2023-03-17T16:49:58.814Z,60.08
2023-03-17T16:52:31.407Z,59.54
2023-03-17T16:55:03.081Z,60.14
2023-03-17T16:57:35.508Z,60.35
2023-03-17T17:00:10.890Z,60.10
2023-03-17T17:02:42.593Z,60.07
2023-03-17T17:05:22.462Z,60.28
2023-03-17T17:07:56.261Z,60.41
2023-03-17T17:10:30.197Z,60.13
2023-03-17T17:13:02.094Z,59.88
2023-03-17T17:15:33.763Z,60.03
2023-03-17T17:18:17.756Z,60.02
2023-03-17T17:20:48.987Z,59.18
2023-03-17T17:23:24.258Z,59.40
2023-03-17T17:25:57.312Z,59.59
2023-03-17T17:28:31.402Z,59.59
2023-03-17T17:31:02.352Z,59.74
2023-03-17T17:33:34.146Z,59.86
2023-03-17T17:36:07.614Z,59.71
2023-03-17T17:38:40.702Z,59.75
2023-03-17T17:41:14.676Z,58.92
2023-03-17T17:43:46.518Z,59.54
2023-03-17T17:46:24.859Z,59.45
2023-03-17T17:48:58.496Z,59.29
2023-03-17T17:51:31.680Z,59.99
2023-03-17T17:54:03.010Z,60.56
2023-03-17T17:56:38.033Z,59.26
2023-03-17T17:59:09.786Z,59.37
2023-03-17T18:01:41.624Z,60.26
2023-03-17T18:04:14.116Z,59.31
2023-03-17T18:06:49.174Z,60.00
2023-03-17T18:09:21.274Z,60.10
2023-03-17T18:11:52.580Z,59.95
2023-03-17T18:14:24.249Z,60.34
2023-03-17T18:16:56.018Z,59.99
2023-03-17T18:19:28.155Z,60.21
2023-03-17T18:21:59.951Z,60.12
2023-03-17T18:24:32.123Z,60.08
2023-03-17T18:27:03.067Z,60.39
2023-03-17T18:29:33.610Z,59.90
2023-03-17T18:32:07.286Z,60.69
2023-03-17T18:34:45.536Z,59.92
2023-03-17T18:37:19.503Z,60.64
2023-03-17T18:40:09.714Z,60.24
2023-03-17T18:42:40.347Z,60.27
2023-03-17T18:45:17.473Z,60.36
2023-03-17T18:47:49.117Z,60.47
2023-03-17T18:50:21.966Z,60.19
2023-03-17T18:52:53.668Z,61.09
2023-03-17T18:55:25.603Z,61.25
2023-03-17T18:57:57.049Z,61.25
2023-03-17T19:00:29.994Z,61.48
2023-03-17T19:03:00.243Z,61.08
2023-03-17T19:05:30.610Z,61.47
2023-03-17T19:08:01.733Z,61.70
2023-03-17T19:10:47.587Z,61.99
2023-03-17T19:13:25.633Z,62.30
2023-03-17T19:16:03.121Z,62.76
2023-03-17T19:18:38.688Z,62.94
2023-03-17T19:21:11.112Z,63.15
2023-03-17T19:23:42.812Z,63.80
2023-03-17T19:26:13.120Z,63.89
2023-03-17T19:44:52.080Z,65.60
2023-03-17T19:47:23.517Z,65.39
2023-03-17T19:49:54.333Z,65.33
2023-03-17T19:52:33.657Z,65.42
2023-03-17T19:55:08.867Z,65.25
2023-03-17T19:57:46.072Z,65.88
2023-03-17T20:00:19.701Z,65.90
2023-03-17T20:03:03.247Z,66.21
2023-03-17T20:08:42.778Z,66.34
2023-03-17T20:11:22.970Z,67.34
2023-03-17T20:16:55.588Z,67.14
2023-03-17T20:19:26.058Z,67.10
2023-03-17T20:21:57.143Z,67.55
2023-03-17T20:24:31.246Z,67.41
2023-03-17T20:27:07.283Z,67.41
2023-03-17T20:29:43.792Z,67.98
2023-03-17T20:32:16.371Z,68.05
2023-03-17T20:34:48.105Z,68.26
2023-03-17T20:37:19.886Z,67.99
2023-03-17T20:39:50.599Z,68.89
2023-03-17T20:42:21.407Z,68.22
2023-03-17T20:44:55.375Z,68.28
2023-03-17T20:47:27.000Z,68.10
2023-03-17T20:50:00.938Z,69.23
2023-03-17T20:52:32.689Z,68.41
2023-03-17T20:55:04.963Z,68.31
2023-03-17T20:57:38.381Z,68.61
2023-03-17T21:00:12.357Z,69.41
2023-03-17T21:02:43.345Z,68.67
2023-03-17T21:05:17.999Z,69.25
2023-03-17T21:07:50.308Z,69.51
2023-03-17T21:10:21.877Z,69.09
2023-03-17T21:12:52.264Z,69.26
2023-03-17T21:15:25.924Z,69.80
2023-03-17T21:17:57.408Z,69.86
2023-03-17T21:20:27.624Z,70.36
2023-03-17T21:22:58.771Z,70.68
2023-03-17T21:25:29.502Z,70.31
2023-03-17T21:27:59.677Z,70.42
2023-03-17T21:30:31.327Z,70.98
2023-03-17T21:33:06.006Z,70.50
2023-03-17T21:35:37.683Z,70.55
2023-03-17T21:38:07.887Z,70.66
2023-03-17T21:40:39.030Z,71.06
2023-03-17T21:43:09.410Z,70.76
2023-03-17T21:45:41.375Z,70.85
2023-03-17T21:48:13.229Z,70.46
2023-03-17T21:50:44.427Z,70.71
2023-03-17T21:53:17.206Z,70.50
2023-03-17T21:55:48.664Z,70.15
2023-03-17T21:58:19.282Z,70.18
2023-03-17T22:00:51.393Z,70.17
2023-03-17T22:03:22.582Z,70.51
2023-03-17T22:05:52.946Z,70.87
2023-03-17T22:08:24.781Z,71.28
2023-03-17T22:10:57.927Z,71.15
2023-03-17T22:13:29.036Z,71.41
2023-03-17T22:16:02.152Z,71.12
2023-03-17T22:18:41.808Z,71.53
2023-03-17T22:21:14.816Z,71.14
2023-03-17T22:23:48.934Z,70.97
2023-03-17T23:02:15.798Z,72.74
2023-03-17T23:04:51.216Z,73.08
2023-03-17T23:07:24.921Z,73.26
2023-03-17T23:09:55.990Z,73.19
2023-03-17T23:12:26.304Z,73.48
2023-03-17T23:14:56.506Z,73.24
2023-03-17T23:17:28.780Z,73.33
2023-03-17T23:19:59.112Z,73.56
2023-03-17T23:22:29.190Z,73.42
2023-03-17T23:25:00.805Z,73.78
2023-03-17T23:27:31.006Z,73.69
2023-03-17T23:30:01.953Z,73.71
2023-03-17T23:32:34.430Z,73.95
2023-03-17T23:35:04.982Z,74.00
2023-03-17T23:37:35.492Z,74.19
2023-03-17T23:40:07.743Z,74.39
2023-03-17T23:42:39.290Z,74.27
2023-03-17T23:45:10.781Z,74.22
2023-03-17T23:47:41.461Z,74.09
2023-03-17T23:50:13.802Z,73.99
2023-03-17T23:52:45.502Z,74.08
2023-03-17T23:55:17.491Z,74.20
2023-03-17T23:57:48.855Z,74.03
